createdAt,value
2023-02-06T00:01:35.302Z,13.37
2023-02-06T00:04:04.663Z,12.20
2023-02-06T00:06:33.426Z,13.53
2023-02-06T00:09:01.969Z,12.00
2023-02-06T00:11:30.095Z,13.57
2023-02-06T00:13:58.194Z,12.47
2023-02-06T00:16:27.760Z,12.67
2023-02-06T00:18:57.389Z,12.90
2023-02-06T00:21:28.255Z,13.70
2023-02-06T00:23:57.735Z,13.17
2023-02-06T00:26:26.073Z,11.97
2023-02-06T00:28:54.265Z,11.83
2023-02-06T00:31:22.283Z,13.20
2023-02-06T00:33:50.388Z,12.07
2023-02-06T00:36:18.249Z,14.73
2023-02-06T00:38:47.480Z,14.37
2023-02-06T00:41:15.346Z,14.70
2023-02-06T00:43:43.607Z,15.47
2023-02-06T00:46:11.865Z,16.10
2023-02-06T00:48:39.883Z,15.63
2023-02-06T00:51:07.696Z,17.80
2023-02-06T00:53:38.051Z,16.53
2023-02-06T00:56:07.725Z,16.87
2023-02-06T00:58:35.650Z,16.60
2023-02-06T01:01:04.568Z,18.17
2023-02-06T01:03:32.426Z,18.40
2023-02-06T01:06:00.350Z,15.97
2023-02-06T01:08:28.201Z,16.40
2023-02-06T01:10:56.038Z,15.87
2023-02-06T01:13:25.247Z,16.80
2023-02-06T01:15:53.271Z,15.17
2023-02-06T01:18:21.206Z,15.87
2023-02-06T01:20:49.063Z,15.43
2023-02-06T01:23:16.973Z,15.60
2023-02-06T01:25:45.472Z,14.60
2023-02-06T01:28:13.471Z,14.63
2023-02-06T01:30:43.898Z,16.17
2023-02-06T01:33:11.866Z,14.40
2023-02-06T01:35:39.793Z,13.93
2023-02-06T01:38:08.563Z,14.47
2023-02-06T01:40:36.457Z,15.57
2023-02-06T01:43:04.282Z,14.83
2023-02-06T01:45:45.937Z,14.50
2023-02-06T01:48:18.126Z,14.80
2023-02-06T01:50:52.468Z,15.60
2023-02-06T01:53:23.471Z,14.03
2023-02-06T01:55:53.594Z,13.37
2023-02-06T01:58:26.894Z,13.40
2023-02-06T02:00:58.568Z,14.10
2023-02-06T02:03:27.194Z,15.13
2023-02-06T02:06:00.602Z,13.97
2023-02-06T02:08:34.931Z,14.10
2023-02-06T02:11:04.395Z,12.80
2023-02-06T02:13:34.198Z,12.03
2023-02-06T02:16:13.363Z,11.80
2023-02-06T02:19:06.457Z,11.90
2023-02-06T02:22:08.588Z,11.40
2023-02-06T02:25:00.160Z,12.67
2023-02-06T02:27:45.681Z,11.20
2023-02-06T02:30:48.979Z,10.80
2023-02-06T02:33:58.699Z,11.00
2023-02-06T02:36:35.013Z,10.50
2023-02-06T02:39:11.216Z,10.53
2023-02-06T02:41:45.419Z,10.07
2023-02-06T02:44:22.305Z,11.03
2023-02-06T02:46:55.270Z,10.67
2023-02-06T02:49:27.511Z,10.53
2023-02-06T02:51:58.675Z,11.00
2023-02-06T02:54:26.535Z,10.67
2023-02-06T02:56:56.523Z,13.03
2023-02-06T02:59:30.493Z,11.30
2023-02-06T03:02:03.688Z,12.53
2023-02-06T03:04:38.958Z,13.00
2023-02-06T03:07:18.738Z,13.23
2023-02-06T03:09:55.110Z,14.10
2023-02-06T03:12:38.925Z,13.40
2023-02-06T03:15:14.776Z,14.30
2023-02-06T03:17:47.462Z,15.43
2023-02-06T03:20:16.001Z,16.60
2023-02-06T03:22:48.478Z,15.00
2023-02-06T03:25:23.820Z,14.97
2023-02-06T03:27:53.745Z,13.40
2023-02-06T03:30:23.943Z,13.10
2023-02-06T03:32:57.452Z,12.90
2023-02-06T03:35:30.747Z,13.30
2023-02-06T03:38:00.138Z,12.67
2023-02-06T03:40:29.646Z,12.30
2023-02-06T03:43:01.936Z,13.30
2023-02-06T03:45:33.167Z,14.03
2023-02-06T03:48:05.349Z,13.63
2023-02-06T03:50:37.003Z,13.07
2023-02-06T03:53:06.601Z,12.70
2023-02-06T03:55:35.863Z,13.20
2023-02-06T03:58:08.298Z,13.00
2023-02-06T04:00:38.654Z,13.57
2023-02-06T04:03:06.887Z,12.63
2023-02-06T04:05:35.098Z,12.83
2023-02-06T04:08:03.248Z,12.23
2023-02-06T04:10:32.437Z,12.77
2023-02-06T04:13:00.428Z,11.87
2023-02-06T04:15:28.316Z,12.50
2023-02-06T04:18:01.551Z,11.80
2023-02-06T04:20:30.690Z,14.00
2023-02-06T04:22:58.651Z,12.27
2023-02-06T04:25:27.033Z,12.63
2023-02-06T04:27:56.372Z,12.73
2023-02-06T04:30:24.309Z,12.37
2023-02-06T04:32:52.653Z,11.60
2023-02-06T04:35:20.719Z,12.70
2023-02-06T04:37:48.608Z,12.27
2023-02-06T04:40:16.669Z,12.37
2023-02-06T04:42:44.699Z,11.30
2023-02-06T04:45:14.427Z,11.90
2023-02-06T04:47:42.272Z,12.70
2023-02-06T04:50:11.395Z,11.33
2023-02-06T04:52:39.226Z,11.20
2023-02-06T04:55:07.788Z,11.37
2023-02-06T04:57:35.722Z,11.50
2023-02-06T05:00:03.758Z,12.20
2023-02-06T05:02:37.464Z,13.20
2023-02-06T05:05:05.819Z,12.33
2023-02-06T05:07:33.694Z,11.60
2023-02-06T05:10:01.708Z,11.40
2023-02-06T05:12:29.952Z,11.03
2023-02-06T05:14:57.801Z,12.53
2023-02-06T05:17:25.721Z,12.37
2023-02-06T05:19:56.441Z,13.30
2023-02-06T05:22:25.810Z,12.80
2023-02-06T05:24:53.833Z,12.43
2023-02-06T05:27:21.715Z,12.73
2023-02-06T05:29:49.577Z,14.50
2023-02-06T05:32:18.211Z,13.70
2023-02-06T05:34:46.358Z,12.70
2023-02-06T05:37:15.545Z,13.10
2023-02-06T05:39:43.388Z,12.50
2023-02-06T05:42:11.324Z,13.20
2023-02-06T05:44:39.195Z,12.43
2023-02-06T05:47:07.085Z,11.57
2023-02-06T05:49:34.962Z,12.53
2023-02-06T05:52:02.879Z,13.07
2023-02-06T05:54:32.372Z,11.57
2023-02-06T05:57:00.218Z,14.40
2023-02-06T05:59:28.150Z,11.20
2023-02-06T06:01:56.060Z,12.87
2023-02-06T06:04:24.153Z,12.97
2023-02-06T06:06:52.308Z,11.30
2023-02-06T06:09:20.236Z,12.17
2023-02-06T06:11:51.220Z,11.60
2023-02-06T06:14:19.424Z,11.70
2023-02-06T06:16:47.442Z,12.67
2023-02-06T06:19:15.375Z,12.70
2023-02-06T06:21:43.280Z,11.87
2023-02-06T06:24:11.271Z,13.43
2023-02-06T06:26:39.366Z,11.93
2023-02-06T06:29:08.558Z,12.40
2023-02-06T06:31:39.381Z,13.17
2023-02-06T06:34:07.242Z,11.63
2023-02-06T06:36:35.135Z,12.70
2023-02-06T06:39:03.020Z,12.50
2023-02-06T06:41:30.923Z,11.73
2023-02-06T06:43:59.608Z,11.20
2023-02-06T06:46:28.791Z,11.23
2023-02-06T06:49:53.988Z,12.10
2023-02-06T06:52:25.464Z,11.73
2023-02-06T06:54:53.755Z,11.63
2023-02-06T06:57:22.161Z,11.77
2023-02-06T06:59:50.492Z,11.80
2023-02-06T07:02:19.780Z,11.77
2023-02-06T07:04:47.880Z,12.33
2023-02-06T07:07:16.107Z,12.67
2023-02-06T07:09:43.952Z,13.30
2023-02-06T07:12:11.887Z,12.57
2023-02-06T07:14:41.319Z,15.00
2023-02-06T07:17:09.294Z,12.93
2023-02-06T07:19:38.527Z,12.47
2023-02-06T07:22:06.442Z,13.27
2023-02-06T07:24:34.315Z,12.30
2023-02-06T07:27:02.185Z,12.57
2023-02-06T07:29:30.085Z,13.87
2023-02-06T07:32:00.762Z,12.90
2023-02-06T07:34:28.892Z,13.90
2023-02-06T07:36:59.711Z,12.93
2023-02-06T07:39:27.665Z,13.90
2023-02-06T07:41:55.485Z,14.00
2023-02-06T07:44:27.833Z,13.03
2023-02-06T07:46:55.628Z,13.63
2023-02-06T07:49:23.531Z,14.10
2023-02-06T07:51:51.530Z,15.00
2023-02-06T07:54:21.063Z,12.40
2023-02-06T07:56:48.921Z,13.50
2023-02-06T07:59:17.536Z,12.03
2023-02-06T08:01:45.801Z,12.57
2023-02-06T08:04:13.774Z,12.70
2023-02-06T08:06:42.550Z,13.00
2023-02-06T08:09:13.414Z,12.63
2023-02-06T08:11:49.783Z,12.10
2023-02-06T08:14:17.674Z,13.60
2023-02-06T08:16:45.637Z,11.80
2023-02-06T08:19:13.580Z,14.40
2023-02-06T08:21:41.541Z,13.10
2023-02-06T08:24:12.724Z,15.07
2023-02-06T08:26:40.672Z,13.70
2023-02-06T08:29:10.416Z,13.87
2023-02-06T08:31:40.344Z,15.37
2023-02-06T08:34:10.814Z,13.60
2023-02-06T08:36:39.653Z,15.07
2023-02-06T08:39:08.193Z,12.80
2023-02-06T08:41:38.087Z,13.27
2023-02-06T08:44:09.107Z,12.37
2023-02-06T08:46:39.825Z,12.47
2023-02-06T08:49:09.875Z,12.60
2023-02-06T08:51:37.730Z,14.03
2023-02-06T08:54:07.896Z,12.60
2023-02-06T08:56:37.249Z,14.17
2023-02-06T08:59:06.408Z,12.30
2023-02-06T09:01:36.362Z,11.57
2023-02-06T09:04:07.474Z,12.30
2023-02-06T09:06:36.132Z,14.20
2023-02-06T09:09:05.478Z,12.67
2023-02-06T09:11:33.738Z,12.30
2023-02-06T09:14:03.548Z,13.80
2023-02-06T09:16:33.220Z,12.47
2023-02-06T09:19:02.236Z,12.13
2023-02-06T09:21:32.871Z,12.70
2023-02-06T09:24:03.013Z,13.57
2023-02-06T09:26:38.899Z,11.77
2023-02-06T09:29:10.986Z,16.47
2023-02-06T09:31:41.022Z,12.50
2023-02-06T09:34:10.070Z,22.83
2023-02-06T09:36:39.390Z,14.63
2023-02-06T09:39:09.500Z,13.20
2023-02-06T09:41:43.045Z,10.50
2023-02-06T09:44:17.484Z,10.27
2023-02-06T09:46:50.511Z,10.70
2023-02-06T09:49:25.956Z,11.57
2023-02-06T09:52:10.292Z,12.37
2023-02-06T09:54:47.078Z,11.13
2023-02-06T09:57:21.020Z,12.50
2023-02-06T09:59:52.841Z,12.70
2023-02-06T10:02:35.930Z,12.43
2023-02-06T10:05:17.434Z,11.60
2023-02-06T10:07:59.115Z,12.80
2023-02-06T10:10:36.232Z,13.10
2023-02-06T10:13:10.132Z,12.40
2023-02-06T10:15:45.216Z,12.40
2023-02-06T10:18:17.344Z,13.40
2023-02-06T10:20:51.863Z,14.97
2023-02-06T10:23:29.981Z,11.30
2023-02-06T10:26:05.917Z,11.33
2023-02-06T10:28:35.582Z,12.73
2023-02-06T10:31:15.881Z,12.60
2023-02-06T10:33:53.092Z,12.00
2023-02-06T10:36:38.157Z,12.20
2023-02-06T10:39:38.098Z,11.70
2023-02-06T10:42:16.366Z,12.20
2023-02-06T10:44:53.056Z,12.17
2023-02-06T10:47:33.799Z,12.60
2023-02-06T10:50:09.709Z,14.13
2023-02-06T10:52:39.275Z,12.67
2023-02-06T10:55:19.515Z,12.10
2023-02-06T10:57:50.943Z,12.30
2023-02-06T11:00:25.898Z,11.00
2023-02-06T11:03:06.589Z,12.30
2023-02-06T11:05:36.628Z,11.87
2023-02-06T11:08:12.394Z,12.23
2023-02-06T11:10:42.147Z,11.60
2023-02-06T11:13:16.299Z,10.70
2023-02-06T11:15:50.461Z,10.57
2023-02-06T11:18:21.777Z,11.50
2023-02-06T11:20:51.614Z,11.17
2023-02-06T11:23:20.943Z,11.10
2023-02-06T11:25:58.557Z,12.73
2023-02-06T11:28:27.290Z,11.87
2023-02-06T11:30:58.048Z,10.80
2023-02-06T11:33:32.694Z,10.33
2023-02-06T11:36:01.368Z,10.90
2023-02-06T11:38:31.556Z,11.43
2023-02-06T11:41:02.954Z,11.43
2023-02-06T11:43:33.140Z,10.00
2023-02-06T11:46:14.980Z,9.97
2023-02-06T11:48:44.919Z,11.87
2023-02-06T11:51:14.449Z,11.40
2023-02-06T11:53:57.925Z,12.67
2023-02-06T11:56:29.073Z,12.80
2023-02-06T11:59:07.045Z,11.67
2023-02-06T12:01:44.968Z,10.30
2023-02-06T12:04:23.696Z,9.43
2023-02-06T12:06:55.762Z,10.03
2023-02-06T12:09:23.680Z,10.00
2023-02-06T12:11:58.028Z,9.77
2023-02-06T12:14:36.180Z,9.53
2023-02-06T12:17:09.700Z,8.60
2023-02-06T12:19:49.792Z,7.30
2023-02-06T12:22:23.568Z,9.00
2023-02-06T12:24:54.805Z,9.90
2023-02-06T12:27:29.217Z,9.60
2023-02-06T12:30:02.402Z,10.07
2023-02-06T12:32:36.105Z,8.77
2023-02-06T12:35:16.345Z,9.80
2023-02-06T12:37:51.885Z,9.77
2023-02-06T12:40:36.050Z,9.57
2023-02-06T12:43:09.483Z,10.23
2023-02-06T12:45:46.313Z,9.73
2023-02-06T12:48:20.682Z,10.90
2023-02-06T12:51:05.736Z,9.67
2023-02-06T12:53:37.852Z,9.60
2023-02-06T12:56:21.710Z,9.20
2023-02-06T12:58:59.626Z,9.60
2023-02-06T13:01:51.996Z,10.00
2023-02-06T13:04:23.945Z,10.77
2023-02-06T13:06:55.242Z,9.70
2023-02-06T13:09:27.502Z,11.67
2023-02-06T13:12:08.732Z,10.70
2023-02-06T13:14:40.002Z,9.97
2023-02-06T13:17:11.641Z,10.97
2023-02-06T13:20:00.669Z,10.60
2023-02-06T13:22:47.447Z,9.73
2023-02-06T13:25:51.787Z,10.10
2023-02-06T13:28:59.438Z,9.57
2023-02-06T13:31:31.317Z,9.00
2023-02-06T13:34:02.656Z,9.40
2023-02-06T13:36:47.706Z,10.00
2023-02-06T13:39:24.162Z,10.80
2023-02-06T13:41:52.193Z,11.63
2023-02-06T13:44:26.381Z,11.63
2023-02-06T13:47:33.742Z,11.00
2023-02-06T13:50:35.398Z,12.50
2023-02-06T13:53:32.192Z,14.10
2023-02-06T13:56:15.394Z,11.80
2023-02-06T13:58:49.359Z,10.87
2023-02-06T14:01:22.777Z,12.43
2023-02-06T14:03:54.094Z,11.40
2023-02-06T14:06:36.501Z,12.17
2023-02-06T14:09:30.507Z,12.83
2023-02-06T14:12:25.363Z,12.73
2023-02-06T14:15:12.467Z,12.57
2023-02-06T14:17:59.280Z,12.67
2023-02-06T14:20:39.340Z,12.60
2023-02-06T14:23:17.269Z,13.00
2023-02-06T14:25:57.307Z,12.43
2023-02-06T14:28:39.221Z,11.77
2023-02-06T14:31:16.233Z,12.00
2023-02-06T14:34:10.262Z,11.33
2023-02-06T14:36:59.441Z,12.77
2023-02-06T14:39:45.306Z,12.47
2023-02-06T14:42:18.547Z,12.57
2023-02-06T14:44:51.355Z,12.60
2023-02-06T14:47:23.424Z,15.07
2023-02-06T14:49:52.530Z,12.97
2023-02-06T14:52:25.136Z,11.30
2023-02-06T14:54:53.701Z,11.17
2023-02-06T14:57:25.084Z,12.10
2023-02-06T14:59:55.787Z,12.43
2023-02-06T15:02:28.477Z,12.50
2023-02-06T15:04:57.153Z,11.00
2023-02-06T15:07:30.965Z,14.87
2023-02-06T15:10:02.835Z,11.70
2023-02-06T15:12:32.106Z,12.03
2023-02-06T15:15:02.853Z,11.80
2023-02-06T15:17:33.989Z,12.10
2023-02-06T15:20:36.376Z,11.47
2023-02-06T15:23:17.880Z,12.70
2023-02-06T15:26:06.380Z,12.97
2023-02-06T15:28:37.014Z,14.13
2023-02-06T15:31:05.259Z,13.97
2023-02-06T15:33:34.627Z,12.60
2023-02-06T15:36:04.408Z,13.57
2023-02-06T15:38:35.046Z,15.63
2023-02-06T15:41:06.688Z,13.70
2023-02-06T15:43:36.199Z,14.00
2023-02-06T15:46:06.247Z,14.10
2023-02-06T15:48:37.318Z,15.03
2023-02-06T15:51:19.691Z,16.73
2023-02-06T15:53:50.950Z,16.40
2023-02-06T15:56:24.338Z,13.23
2023-02-06T15:58:58.794Z,13.47
2023-02-06T16:01:28.962Z,25.70
2023-02-06T16:04:00.292Z,21.10
2023-02-06T16:06:28.302Z,14.63
2023-02-06T16:09:02.848Z,17.43
2023-02-06T16:11:50.715Z,17.83
2023-02-06T16:14:22.902Z,16.33
2023-02-06T16:16:59.035Z,14.57
2023-02-06T16:19:39.604Z,15.67
2023-02-06T16:22:16.954Z,16.10
2023-02-06T16:24:46.600Z,16.90
2023-02-06T16:27:21.260Z,16.70
2023-02-06T16:29:52.659Z,15.30
2023-02-06T16:32:24.970Z,15.23
2023-02-06T16:34:53.525Z,14.40
2023-02-06T16:37:23.155Z,16.60
2023-02-06T16:39:52.976Z,16.30
2023-02-06T16:42:22.856Z,16.70
2023-02-06T16:44:54.453Z,17.00
2023-02-06T16:47:22.957Z,18.07
2023-02-06T16:49:51.936Z,17.57
2023-02-06T16:52:23.666Z,21.00
2023-02-06T16:54:55.618Z,18.90
2023-02-06T16:57:29.353Z,19.60
2023-02-06T16:59:57.655Z,18.80
2023-02-06T17:02:27.056Z,19.07
2023-02-06T17:04:55.303Z,18.50
2023-02-06T17:07:26.055Z,17.60
2023-02-06T17:09:59.348Z,18.30
2023-02-06T17:12:27.362Z,17.40
2023-02-06T17:14:55.650Z,19.23
2023-02-06T17:17:24.306Z,17.23
2023-02-06T17:19:53.241Z,16.10
2023-02-06T17:22:21.237Z,17.07
2023-02-06T17:24:49.423Z,15.20
2023-02-06T17:27:20.777Z,16.07
2023-02-06T17:29:49.336Z,19.03
2023-02-06T17:32:21.650Z,19.47
2023-02-06T17:34:51.361Z,21.77
2023-02-06T17:37:21.609Z,24.40
2023-02-06T17:39:51.207Z,24.10
2023-02-06T17:42:21.937Z,26.80
2023-02-06T17:44:50.066Z,25.77
2023-02-06T17:47:18.319Z,21.77
2023-02-06T17:49:47.743Z,17.67
2023-02-06T17:52:15.822Z,17.13
2023-02-06T17:54:43.752Z,22.53
2023-02-06T17:57:13.361Z,22.77
2023-02-06T17:59:42.716Z,22.90
2023-02-06T18:02:13.559Z,23.03
2023-02-06T18:04:41.622Z,27.03
2023-02-06T18:07:09.547Z,20.97
2023-02-06T18:09:37.684Z,22.17
2023-02-06T18:12:05.710Z,21.13
2023-02-06T18:14:33.894Z,21.50
2023-02-06T18:17:03.791Z,21.83
2023-02-06T18:19:31.919Z,20.20
2023-02-06T18:22:00.219Z,20.57
2023-02-06T18:24:28.068Z,21.00
2023-02-06T18:26:56.123Z,21.23
2023-02-06T18:29:24.147Z,22.93
2023-02-06T18:31:52.029Z,24.47
2023-02-06T18:34:21.598Z,22.57
2023-02-06T18:36:49.762Z,23.10
2023-02-06T18:39:18.167Z,21.20
2023-02-06T18:42:03.581Z,23.13
2023-02-06T18:44:31.679Z,22.33
2023-02-06T18:46:59.611Z,23.10
2023-02-06T18:49:28.921Z,23.50
2023-02-06T18:51:56.934Z,24.10
2023-02-06T18:54:25.003Z,24.13
2023-02-06T18:56:52.923Z,23.40
2023-02-06T18:59:21.034Z,23.53
2023-02-06T19:01:49.199Z,26.07
2023-02-06T19:04:17.119Z,24.97
2023-02-06T19:06:47.216Z,27.63
2023-02-06T19:09:16.030Z,28.50
2023-02-06T19:11:44.309Z,27.00
2023-02-06T19:14:15.817Z,28.73
2023-02-06T19:16:47.350Z,25.80
2023-02-06T19:19:15.667Z,22.20
2023-02-06T19:21:44.242Z,19.27
2023-02-06T19:24:15.649Z,21.87
2023-02-06T19:26:44.254Z,21.33
2023-02-06T19:29:34.347Z,22.93
2023-02-06T19:32:03.699Z,23.07
2023-02-06T19:34:33.503Z,23.70
2023-02-06T19:37:02.842Z,26.13
2023-02-06T19:39:34.083Z,25.57
2023-02-06T19:42:04.133Z,23.50
2023-02-06T19:44:33.371Z,22.10
2023-02-06T19:47:02.454Z,20.90
2023-02-06T19:49:31.397Z,22.53
2023-02-06T19:51:59.358Z,19.63
2023-02-06T19:54:27.400Z,22.70
2023-02-06T19:56:56.734Z,20.53
2023-02-06T19:59:26.511Z,20.80
2023-02-06T20:01:57.086Z,21.77
2023-02-06T20:04:28.086Z,21.83
2023-02-06T20:06:58.807Z,22.10
2023-02-06T20:09:28.351Z,20.63
2023-02-06T20:11:58.516Z,20.50
2023-02-06T20:14:30.352Z,21.40
2023-02-06T20:16:58.439Z,22.83
2023-02-06T20:19:28.971Z,21.70
2023-02-06T20:21:58.958Z,21.10
2023-02-06T20:24:29.092Z,20.83
2023-02-06T20:27:06.672Z,20.80
2023-02-06T20:29:37.729Z,21.73
2023-02-06T20:32:06.704Z,20.60
2023-02-06T20:34:35.463Z,21.97
2023-02-06T20:37:04.026Z,23.63
2023-02-06T20:39:32.071Z,21.80
2023-02-06T20:42:01.352Z,22.23
2023-02-06T20:44:29.788Z,24.33
2023-02-06T20:46:57.666Z,22.47
2023-02-06T20:49:27.643Z,21.07
2023-02-06T20:51:55.694Z,23.57
2023-02-06T20:54:24.914Z,23.60
2023-02-06T20:56:53.295Z,22.93
2023-02-06T20:59:23.180Z,23.47
2023-02-06T21:01:51.016Z,23.00
2023-02-06T21:04:20.162Z,23.70
2023-02-06T21:06:49.862Z,24.90
2023-02-06T21:09:18.879Z,24.97
2023-02-06T21:11:48.612Z,25.70
2023-02-06T21:14:17.212Z,23.90
2023-02-06T21:16:46.681Z,23.43
2023-02-06T21:19:16.958Z,25.00
2023-02-06T21:21:46.323Z,26.87
2023-02-06T21:24:15.646Z,25.80
2023-02-06T21:26:43.953Z,26.60
2023-02-06T21:29:14.164Z,25.43
2023-02-06T21:31:42.270Z,27.43
2023-02-06T21:34:14.633Z,25.90
2023-02-06T21:36:42.746Z,26.57
2023-02-06T21:39:12.637Z,25.63
2023-02-06T21:41:40.550Z,26.03
2023-02-06T21:44:08.527Z,26.07
2023-02-06T21:46:36.471Z,26.10
2023-02-06T21:49:06.350Z,26.00
2023-02-06T21:51:35.642Z,28.20
2023-02-06T21:54:03.900Z,27.00
2023-02-06T21:56:32.209Z,27.87
2023-02-06T21:59:00.104Z,27.13
2023-02-06T22:01:30.868Z,26.17
2023-02-06T22:03:59.672Z,28.90
2023-02-06T22:06:28.939Z,28.77
2023-02-06T22:09:05.130Z,26.20
2023-02-06T22:11:33.162Z,25.27
2023-02-06T22:14:02.556Z,26.03
2023-02-06T22:16:30.671Z,26.80
2023-02-06T22:19:00.620Z,28.63
2023-02-06T22:21:30.195Z,27.57
2023-02-06T22:24:01.068Z,29.00
2023-02-06T22:26:31.026Z,28.90
2023-02-06T22:28:58.974Z,27.63
2023-02-06T22:31:29.008Z,26.10
2023-02-06T22:33:58.806Z,25.40
2023-02-06T22:36:29.055Z,26.13
2023-02-06T22:39:01.126Z,27.67
2023-02-06T22:41:29.834Z,26.50
2023-02-06T22:43:58.370Z,26.47
2023-02-06T22:46:28.181Z,24.33
2023-02-06T22:48:56.568Z,24.33
2023-02-06T22:51:25.003Z,26.33
2023-02-06T22:53:53.328Z,26.03
2023-02-06T22:56:36.042Z,24.80
2023-02-06T22:59:06.307Z,23.63
2023-02-06T23:01:36.329Z,24.63
2023-02-06T23:04:06.529Z,23.70
2023-02-06T23:06:36.106Z,18.10
2023-02-06T23:09:06.520Z,21.13
2023-02-06T23:11:36.482Z,24.37
2023-02-06T23:14:06.508Z,23.07
2023-02-06T23:16:35.690Z,23.07
2023-02-06T23:19:05.647Z,23.40
2023-02-06T23:21:35.878Z,22.53
2023-02-06T23:24:05.003Z,22.50
2023-02-06T23:26:33.224Z,21.07
2023-02-06T23:29:08.718Z,21.30
2023-02-06T23:31:37.598Z,20.97
2023-02-06T23:34:05.753Z,19.50
2023-02-06T23:36:33.859Z,21.40
2023-02-06T23:39:02.770Z,21.40
2023-02-06T23:41:31.009Z,20.90
2023-02-06T23:44:00.564Z,22.77
2023-02-06T23:46:32.241Z,21.03
2023-02-06T23:49:00.346Z,19.80
2023-02-06T23:51:28.590Z,22.10
2023-02-06T23:53:56.443Z,20.67
2023-02-06T23:56:25.989Z,20.13
2023-02-06T23:58:54.920Z,20.30
